sensor_id;sensor_type;location;lat;lon;timestamp;pressure;altitude;pressure_sealevel;temperature;humidity
45888;BME280;31595;51.418;7.572;2023-02-23T00:00:30;99920.91;;;12.62;67.43
45888;BME280;31595;51.418;7.572;2023-02-23T00:03:04;99916.66;;;12.64;67.48
45888;BME280;31595;51.418;7.572;2023-02-23T00:05:35;99915.47;;;12.65;67.47
45888;BME280;31595;51.418;7.572;2023-02-23T00:08:05;99911.41;;;12.63;67.23
45888;BME280;31595;51.418;7.572;2023-02-23T00:10:36;99915.34;;;12.62;67.59
45888;BME280;31595;51.418;7.572;2023-02-23T00:13:11;99914.34;;;12.66;67.47
45888;BME280;31595;51.418;7.572;2023-02-23T00:15:38;99917.13;;;12.66;67.58
45888;BME280;31595;51.418;7.572;2023-02-23T00:18:07;99907.56;;;12.67;67.46
45888;BME280;31595;51.418;7.572;2023-02-23T00:20:39;99908.28;;;12.64;68.21
45888;BME280;31595;51.418;7.572;2023-02-23T00:23:14;99907.56;;;12.67;68.22
45888;BME280;31595;51.418;7.572;2023-02-23T00:25:52;99907.44;;;12.64;68.00
45888;BME280;31595;51.418;7.572;2023-02-23T00:28:20;99911.53;;;12.66;67.25
45888;BME280;31595;51.418;7.572;2023-02-23T00:31:13;99906.63;;;12.63;68.15
45888;BME280;31595;51.418;7.572;2023-02-23T00:33:53;99913.84;;;12.64;67.67
45888;BME280;31595;51.418;7.572;2023-02-23T00:36:58;99904.63;;;12.64;67.59
45888;BME280;31595;51.418;7.572;2023-02-23T00:39:29;99906.06;;;12.70;67.94
45888;BME280;31595;51.418;7.572;2023-02-23T00:42:16;99903.16;;;12.66;67.76
45888;BME280;31595;51.418;7.572;2023-02-23T00:45:15;99904.28;;;12.65;68.22
45888;BME280;31595;51.418;7.572;2023-02-23T00:47:56;99907.22;;;12.69;67.99
45888;BME280;31595;51.418;7.572;2023-02-23T00:50:35;99903.50;;;12.65;67.87
45888;BME280;31595;51.418;7.572;2023-02-23T00:53:06;99900.69;;;12.65;67.67
45888;BME280;31595;51.418;7.572;2023-02-23T00:55:39;99909.06;;;12.65;68.48
45888;BME280;31595;51.418;7.572;2023-02-23T01:01:03;99908.28;;;12.64;68.67
45888;BME280;31595;51.418;7.572;2023-02-23T01:03:33;99910.59;;;12.62;68.42
45888;BME280;31595;51.418;7.572;2023-02-23T01:06:03;99906.75;;;12.67;68.52
45888;BME280;31595;51.418;7.572;2023-02-23T01:08:42;99908.75;;;12.66;67.61
45888;BME280;31595;51.418;7.572;2023-02-23T01:11:19;99903.97;;;12.67;67.87
45888;BME280;31595;51.418;7.572;2023-02-23T01:13:57;99908.28;;;12.64;67.70
45888;BME280;31595;51.418;7.572;2023-02-23T01:16:32;99906.13;;;12.61;68.06
45888;BME280;31595;51.418;7.572;2023-02-23T01:19:10;99905.47;;;12.64;68.10
45888;BME280;31595;51.418;7.572;2023-02-23T01:21:44;99896.94;;;12.61;68.39
45888;BME280;31595;51.418;7.572;2023-02-23T01:24:21;99902.06;;;12.58;68.47
45888;BME280;31595;51.418;7.572;2023-02-23T01:26:53;99899.94;;;12.55;68.63
45888;BME280;31595;51.418;7.572;2023-02-23T01:29:32;99894.81;;;12.57;68.89
45888;BME280;31595;51.418;7.572;2023-02-23T01:32:13;99899.75;;;12.61;68.46
45888;BME280;31595;51.418;7.572;2023-02-23T01:34:50;99898.09;;;12.59;68.87
45888;BME280;31595;51.418;7.572;2023-02-23T01:37:44;99903.50;;;12.65;68.89
45888;BME280;31595;51.418;7.572;2023-02-23T01:40:14;99896.63;;;12.62;68.08
45888;BME280;31595;51.418;7.572;2023-02-23T01:42:56;99897.28;;;12.59;68.87
45888;BME280;31595;51.418;7.572;2023-02-23T01:45:38;99894.00;;;12.57;68.96
45888;BME280;31595;51.418;7.572;2023-02-23T01:48:08;99891.06;;;12.53;68.36
45888;BME280;31595;51.418;7.572;2023-02-23T01:50:47;99903.75;;;12.51;68.58
45888;BME280;31595;51.418;7.572;2023-02-23T01:53:20;99894.31;;;12.43;69.65
45888;BME280;31595;51.418;7.572;2023-02-23T01:56:00;99892.66;;;12.42;69.48
45888;BME280;31595;51.418;7.572;2023-02-23T01:58:32;99898.97;;;12.51;68.94
45888;BME280;31595;51.418;7.572;2023-02-23T02:03:41;99894.56;;;12.50;68.85
45888;BME280;31595;51.418;7.572;2023-02-23T02:06:27;99895.59;;;12.46;69.02
45888;BME280;31595;51.418;7.572;2023-02-23T02:09:04;99890.91;;;12.37;69.47
45888;BME280;31595;51.418;7.572;2023-02-23T02:11:44;99889.63;;;12.35;70.21
45888;BME280;31595;51.418;7.572;2023-02-23T02:14:23;99883.66;;;12.36;69.96
45888;BME280;31595;51.418;7.572;2023-02-23T02:17:17;99892.53;;;12.38;69.61
45888;BME280;31595;51.418;7.572;2023-02-23T02:20:06;99886.81;;;12.35;69.61
45888;BME280;31595;51.418;7.572;2023-02-23T02:24:06;99890.28;;;12.32;70.45
45888;BME280;31595;51.418;7.572;2023-02-23T02:26:21;99886.34;;;12.33;70.04
45888;BME280;31595;51.418;7.572;2023-02-23T02:29:23;99886.44;;;12.36;70.38
45888;BME280;31595;51.418;7.572;2023-02-23T02:38:12;99886.34;;;12.33;70.58
45888;BME280;31595;51.418;7.572;2023-02-23T02:40:47;99871.53;;;12.32;70.76
45888;BME280;31595;51.418;7.572;2023-02-23T02:43:31;99877.56;;;12.43;70.71
45888;BME280;31595;51.418;7.572;2023-02-23T02:46:04;99875.56;;;12.44;70.27
45888;BME280;31595;51.418;7.572;2023-02-23T02:48:43;99875.91;;;12.42;70.58
45888;BME280;31595;51.418;7.572;2023-02-23T02:51:36;99873.91;;;12.43;70.35
45888;BME280;31595;51.418;7.572;2023-02-23T02:54:14;99874.28;;;12.41;70.70
45888;BME280;31595;51.418;7.572;2023-02-23T02:57:01;99867.06;;;12.40;70.49
45888;BME280;31595;51.418;7.572;2023-02-23T02:59:29;99866.91;;;12.36;71.29
45888;BME280;31595;51.418;7.572;2023-02-23T03:02:20;99862.16;;;12.37;71.01
45888;BME280;31595;51.418;7.572;2023-02-23T03:05:12;99861.94;;;12.42;71.33
45888;BME280;31595;51.418;7.572;2023-02-23T03:08:08;99858.66;;;12.40;70.89
45888;BME280;31595;51.418;7.572;2023-02-23T03:11:01;99853.09;;;12.40;70.50
45888;BME280;31595;51.418;7.572;2023-02-23T03:13:56;99856.56;;;12.37;71.15
45888;BME280;31595;51.418;7.572;2023-02-23T03:16:54;99858.06;;;12.34;71.36
45888;BME280;31595;51.418;7.572;2023-02-23T03:19:49;99854.44;;;12.34;70.80
45888;BME280;31595;51.418;7.572;2023-02-23T03:22:49;99865.63;;;12.34;70.88
45888;BME280;31595;51.418;7.572;2023-02-23T03:25:41;99865.63;;;12.34;71.39
45888;BME280;31595;51.418;7.572;2023-02-23T03:28:33;99863.63;;;12.34;70.81
45888;BME280;31595;51.418;7.572;2023-02-23T03:31:22;99867.28;;;12.35;70.39
45888;BME280;31595;51.418;7.572;2023-02-23T03:34:16;99865.63;;;12.34;71.11
45888;BME280;31595;51.418;7.572;2023-02-23T03:37:09;99864.00;;;12.33;70.87
45888;BME280;31595;51.418;7.572;2023-02-23T03:40:03;99866.31;;;12.31;71.46
45888;BME280;31595;51.418;7.572;2023-02-23T03:42:52;99860.72;;;12.31;71.13
45888;BME280;31595;51.418;7.572;2023-02-23T03:45:42;99871.75;;;12.27;71.36
45888;BME280;31595;51.418;7.572;2023-02-23T03:48:30;99868.81;;;12.24;71.41
45888;BME280;31595;51.418;7.572;2023-02-23T03:51:17;99870.81;;;12.23;71.40
45888;BME280;31595;51.418;7.572;2023-02-23T03:54:08;99864.53;;;12.26;70.91
45888;BME280;31595;51.418;7.572;2023-02-23T03:56:56;99868.47;;;12.25;71.39
45888;BME280;31595;51.418;7.572;2023-02-23T03:59:46;99867.78;;;12.28;71.62
45888;BME280;31595;51.418;7.572;2023-02-23T04:02:47;99862.34;;;12.32;71.09
45888;BME280;31595;51.418;7.572;2023-02-23T04:05:34;99863.53;;;12.31;70.86
45888;BME280;31595;51.418;7.572;2023-02-23T04:08:22;99873.19;;;12.33;70.73
45888;BME280;31595;51.418;7.572;2023-02-23T04:11:13;99870.06;;;12.35;70.56
45888;BME280;31595;51.418;7.572;2023-02-23T04:14:04;99873.53;;;12.32;70.97
45888;BME280;31595;51.418;7.572;2023-02-23T04:16:34;99876.66;;;12.30;70.89
45888;BME280;31595;51.418;7.572;2023-02-23T04:19:14;99866.31;;;12.31;70.55
45888;BME280;31595;51.418;7.572;2023-02-23T04:21:44;99872.22;;;12.29;70.92
45888;BME280;31595;51.418;7.572;2023-02-23T04:24:21;99875.50;;;12.31;71.22
45888;BME280;31595;51.418;7.572;2023-02-23T04:27:05;99884.22;;;12.30;71.29
45888;BME280;31595;51.418;7.572;2023-02-23T04:29:38;99879.31;;;12.27;71.37
45888;BME280;31595;51.418;7.572;2023-02-23T04:32:34;99887.81;;;12.30;70.81
45888;BME280;31595;51.418;7.572;2023-02-23T04:35:06;99878.16;;;12.28;70.91
45888;BME280;31595;51.418;7.572;2023-02-23T04:37:39;99883.06;;;12.31;70.63
45888;BME280;31595;51.418;7.572;2023-02-23T04:40:24;99886.66;;;12.31;70.62
45888;BME280;31595;51.418;7.572;2023-02-23T04:42:55;99889.47;;;12.31;70.67
45888;BME280;31595;51.418;7.572;2023-02-23T04:45:24;99881.22;;;12.35;70.47
45888;BME280;31595;51.418;7.572;2023-02-23T04:47:54;99888.66;;;12.31;70.77
45888;BME280;31595;51.418;7.572;2023-02-23T04:50:27;99891.22;;;12.36;70.85
45888;BME280;31595;51.418;7.572;2023-02-23T04:53:01;99891.22;;;12.36;70.59
45888;BME280;31595;51.418;7.572;2023-02-23T04:55:33;99880.38;;;12.34;70.56
45888;BME280;31595;51.418;7.572;2023-02-23T04:58:02;99893.22;;;12.35;70.18
45888;BME280;31595;51.418;7.572;2023-02-23T05:01:02;99891.03;;;12.41;70.29
45888;BME280;31595;51.418;7.572;2023-02-23T05:06:41;99889.63;;;12.35;70.39
45888;BME280;31595;51.418;7.572;2023-02-23T05:09:12;99895.31;;;12.38;70.33
45888;BME280;31595;51.418;7.572;2023-02-23T05:11:43;99882.84;;;12.36;71.06
45888;BME280;31595;51.418;7.572;2023-02-23T05:14:20;99889.72;;;12.38;71.24
45888;BME280;31595;51.418;7.572;2023-02-23T05:16:48;99896.00;;;12.35;71.16
45888;BME280;31595;51.418;7.572;2023-02-23T05:19:16;99898.00;;;12.35;71.14
45888;BME280;31595;51.418;7.572;2023-02-23T05:21:49;99898.00;;;12.35;71.14
45888;BME280;31595;51.418;7.572;2023-02-23T05:24:17;99899.13;;;12.34;70.85
45888;BME280;31595;51.418;7.572;2023-02-23T05:26:45;99895.06;;;12.31;71.44
45888;BME280;31595;51.418;7.572;2023-02-23T05:29:16;99898.31;;;12.33;71.09
45888;BME280;31595;51.418;7.572;2023-02-23T05:31:44;99903.09;;;12.33;70.84
45888;BME280;31595;51.418;7.572;2023-02-23T05:34:16;99900.31;;;12.33;71.52
45888;BME280;31595;51.418;7.572;2023-02-23T05:36:44;99892.41;;;12.35;71.30
45888;BME280;31595;51.418;7.572;2023-02-23T05:39:16;99895.19;;;12.35;71.12
45888;BME280;31595;51.418;7.572;2023-02-23T05:41:47;99898.66;;;12.32;71.48
45888;BME280;31595;51.418;7.572;2023-02-23T05:45:21;99896.66;;;12.32;71.26
45888;BME280;31595;51.418;7.572;2023-02-23T05:47:25;99896.56;;;12.29;71.45
45888;BME280;31595;51.418;7.572;2023-02-23T05:49:56;99896.88;;;12.27;71.55
45888;BME280;31595;51.418;7.572;2023-02-23T05:52:37;99894.91;;;12.28;71.35
45888;BME280;31595;51.418;7.572;2023-02-23T05:55:26;99903.91;;;12.33;71.59
45888;BME280;31595;51.418;7.572;2023-02-23T05:57:56;99896.66;;;12.32;71.63
45888;BME280;31595;51.418;7.572;2023-02-23T06:00:27;99908.78;;;12.36;70.79
45888;BME280;31595;51.418;7.572;2023-02-23T06:03:11;99912.44;;;12.37;71.01
45888;BME280;31595;51.418;7.572;2023-02-23T06:05:39;99908.78;;;12.36;71.45
45888;BME280;31595;51.418;7.572;2023-02-23T06:08:21;99916.19;;;12.41;71.24
45888;BME280;31595;51.418;7.572;2023-02-23T06:10:50;99913.56;;;12.36;71.61
45888;BME280;31595;51.418;7.572;2023-02-23T06:13:45;99915.06;;;12.33;71.75
45888;BME280;31595;51.418;7.572;2023-02-23T06:16:36;99914.75;;;12.35;71.73
45888;BME280;31595;51.418;7.572;2023-02-23T06:19:04;99918.69;;;12.34;71.94
45888;BME280;31595;51.418;7.572;2023-02-23T06:21:37;99919.16;;;12.36;71.75
45888;BME280;31595;51.418;7.572;2023-02-23T06:24:07;99918.03;;;12.37;71.76
45888;BME280;31595;51.418;7.572;2023-02-23T06:30:08;99922.44;;;12.38;71.25
45888;BME280;31595;51.418;7.572;2023-02-23T06:32:46;99930.63;;;12.43;71.40
45888;BME280;31595;51.418;7.572;2023-02-23T06:35:17;99928.00;;;12.38;71.17
45888;BME280;31595;51.418;7.572;2023-02-23T06:37:48;99942.47;;;12.40;71.15
45888;BME280;31595;51.418;7.572;2023-02-23T06:40:19;99930.97;;;12.42;71.63
45888;BME280;31595;51.418;7.572;2023-02-23T06:42:49;99928.50;;;12.40;71.16
45888;BME280;31595;51.418;7.572;2023-02-23T06:45:18;99936.06;;;12.39;71.84
45888;BME280;31595;51.418;7.572;2023-02-23T06:47:49;99941.31;;;12.41;71.17
45888;BME280;31595;51.418;7.572;2023-02-23T06:50:21;99941.84;;;12.34;71.61
45888;BME280;31595;51.418;7.572;2023-02-23T06:52:50;99942.31;;;12.36;71.34
45888;BME280;31595;51.418;7.572;2023-02-23T06:55:32;99944.78;;;12.38;71.34
45888;BME280;31595;51.418;7.572;2023-02-23T06:58:05;99943.75;;;12.43;71.45
45888;BME280;31595;51.418;7.572;2023-02-23T07:00:33;99945.72;;;12.42;71.25
45888;BME280;31595;51.418;7.572;2023-02-23T07:03:07;99965.06;;;12.47;71.66
45888;BME280;31595;51.418;7.572;2023-02-23T07:05:36;99959.97;;;12.49;71.14
45888;BME280;31595;51.418;7.572;2023-02-23T07:08:04;99962.41;;;12.51;70.62
45888;BME280;31595;51.418;7.572;2023-02-23T07:10:32;99966.03;;;12.51;70.44
45888;BME280;31595;51.418;7.572;2023-02-23T07:13:04;99972.78;;;12.50;71.04
45888;BME280;31595;51.418;7.572;2023-02-23T07:15:38;99969.31;;;12.53;70.67
45888;BME280;31595;51.418;7.572;2023-02-23T07:18:14;99964.41;;;12.50;70.86
45888;BME280;31595;51.418;7.572;2023-02-23T07:20:42;99971.13;;;12.49;70.40
45888;BME280;31595;51.418;7.572;2023-02-23T07:23:40;99975.38;;;12.55;70.33
45888;BME280;31595;51.418;7.572;2023-02-23T07:26:14;99969.31;;;12.53;70.15
45888;BME280;31595;51.418;7.572;2023-02-23T07:28:46;99970.13;;;12.54;70.63
45888;BME280;31595;51.418;7.572;2023-02-23T07:31:14;99977.34;;;12.55;69.94
45888;BME280;31595;51.418;7.572;2023-02-23T07:33:42;99974.06;;;12.53;70.60
45888;BME280;31595;51.418;7.572;2023-02-23T07:36:15;99982.31;;;12.49;70.06
45888;BME280;31595;51.418;7.572;2023-02-23T07:38:43;99985.72;;;12.55;70.03
45888;BME280;31595;51.418;7.572;2023-02-23T07:41:41;99991.47;;;12.58;70.09
45888;BME280;31595;51.418;7.572;2023-02-23T07:44:15;99988.19;;;12.56;69.34
45888;BME280;31595;51.418;7.572;2023-02-23T07:46:55;99985.72;;;12.55;69.33
45888;BME280;31595;51.418;7.572;2023-02-23T07:49:27;99999.69;;;12.55;69.80
45888;BME280;31595;51.418;7.572;2023-02-23T07:55:14;99992.50;;;12.54;69.71
45888;BME280;31595;51.418;7.572;2023-02-23T07:57:47;100002.69;;;12.50;69.94
45888;BME280;31595;51.418;7.572;2023-02-23T08:00:18;100004.88;;;12.44;70.46
45888;BME280;31595;51.418;7.572;2023-02-23T08:03:26;99996.97;;;12.46;70.41
45888;BME280;31595;51.418;7.572;2023-02-23T08:06:04;100014.16;;;12.57;70.43
45888;BME280;31595;51.418;7.572;2023-02-23T08:15:04;100012.31;;;12.61;70.22
45888;BME280;31595;51.418;7.572;2023-02-23T08:18:05;100004.56;;;12.67;70.16
45888;BME280;31595;51.418;7.572;2023-02-23T08:24:36;100014.31;;;12.82;70.45
45888;BME280;31595;51.418;7.572;2023-02-23T08:27:13;100008.56;;;12.78;69.71
45888;BME280;31595;51.418;7.572;2023-02-23T08:39:29;100023.84;;;12.80;69.84
45888;BME280;31595;51.418;7.572;2023-02-23T08:41:58;100027.47;;;12.81;70.41
45888;BME280;31595;51.418;7.572;2023-02-23T08:44:33;100031.88;;;12.82;69.77
45888;BME280;31595;51.418;7.572;2023-02-23T08:47:01;100022.13;;;12.88;70.46
45888;BME280;31595;51.418;7.572;2023-02-23T08:49:45;100030.66;;;12.92;70.03
45888;BME280;31595;51.418;7.572;2023-02-23T08:52:20;100036.75;;;12.94;69.66
45888;BME280;31595;51.418;7.572;2023-02-23T08:55:12;100027.25;;;12.86;70.55
45888;BME280;31595;51.418;7.572;2023-02-23T08:57:46;100034.97;;;12.89;69.88
45888;BME280;31595;51.418;7.572;2023-02-23T09:00:16;100039.88;;;12.92;70.88
45888;BME280;31595;51.418;7.572;2023-02-23T09:02:48;100037.00;;;13.01;69.70
45888;BME280;31595;51.418;7.572;2023-02-23T09:05:21;100032.69;;;13.04;70.51
45888;BME280;31595;51.418;7.572;2023-02-23T09:07:59;100043.00;;;13.12;70.17
45888;BME280;31595;51.418;7.572;2023-02-23T09:10:38;100043.69;;;13.09;69.92
45888;BME280;31595;51.418;7.572;2023-02-23T09:13:12;100046.25;;;13.14;69.51
45888;BME280;31595;51.418;7.572;2023-02-23T09:15:44;100042.78;;;13.17;68.40
45888;BME280;31595;51.418;7.572;2023-02-23T09:18:15;100051.78;;;13.23;69.12
45888;BME280;31595;51.418;7.572;2023-02-23T09:20:49;100048.31;;;13.26;67.94
45888;BME280;31595;51.418;7.572;2023-02-23T09:23:17;100051.56;;;13.28;67.93
45888;BME280;31595;51.418;7.572;2023-02-23T09:25:50;100054.56;;;13.31;68.48
45888;BME280;31595;51.418;7.572;2023-02-23T09:28:21;100060.13;;;13.31;67.75
45888;BME280;31595;51.418;7.572;2023-02-23T09:30:49;100063.19;;;13.38;67.27
45888;BME280;31595;51.418;7.572;2023-02-23T09:33:17;100059.22;;;13.39;67.48
45888;BME280;31595;51.418;7.572;2023-02-23T09:35:46;100056.94;;;13.54;67.15
45888;BME280;31595;51.418;7.572;2023-02-23T09:38:15;100068.03;;;13.63;66.30
45888;BME280;31595;51.418;7.572;2023-02-23T09:40:50;100067.03;;;13.79;65.96
45888;BME280;31595;51.418;7.572;2023-02-23T09:43:21;100069.53;;;13.93;65.57
45888;BME280;31595;51.418;7.572;2023-02-23T09:45:56;100061.97;;;14.06;65.42
45888;BME280;31595;51.418;7.572;2023-02-23T09:48:37;100062.09;;;14.10;66.20
45888;BME280;31595;51.418;7.572;2023-02-23T09:51:09;100062.22;;;14.13;65.31
45888;BME280;31595;51.418;7.572;2023-02-23T09:53:52;100070.72;;;14.17;64.60
45888;BME280;31595;51.418;7.572;2023-02-23T09:56:26;100071.78;;;14.12;65.02
45888;BME280;31595;51.418;7.572;2023-02-23T09:58:58;100069.75;;;14.00;65.49
45888;BME280;31595;51.418;7.572;2023-02-23T10:02:12;100071.72;;;13.88;64.89
45888;BME280;31595;51.418;7.572;2023-02-23T10:04:48;100075.19;;;13.72;65.29
45888;BME280;31595;51.418;7.572;2023-02-23T10:07:20;100080.56;;;13.65;65.77
45888;BME280;31595;51.418;7.572;2023-02-23T10:10:02;100075.50;;;13.58;66.24
45888;BME280;31595;51.418;7.572;2023-02-23T10:12:43;100079.31;;;13.54;66.18
45888;BME280;31595;51.418;7.572;2023-02-23T10:15:25;100075.47;;;13.46;66.16
45888;BME280;31595;51.418;7.572;2023-02-23T10:18:01;100079.50;;;13.36;65.44
45888;BME280;31595;51.418;7.572;2023-02-23T10:20:43;100074.25;;;13.35;66.24
45888;BME280;31595;51.418;7.572;2023-02-23T10:23:27;100080.19;;;13.33;66.41
45888;BME280;31595;51.418;7.572;2023-02-23T10:25:58;100083.44;;;13.35;65.83
45888;BME280;31595;51.418;7.572;2023-02-23T10:28:33;100090.00;;;13.39;67.00
45888;BME280;31595;51.418;7.572;2023-02-23T10:31:18;100095.59;;;13.39;66.28
45888;BME280;31595;51.418;7.572;2023-02-23T10:33:57;100091.31;;;13.42;65.71
45888;BME280;31595;51.418;7.572;2023-02-23T10:36:36;100095.00;;;13.34;66.28
45888;BME280;31595;51.418;7.572;2023-02-23T10:39:06;100101.13;;;13.27;65.84
45888;BME280;31595;51.418;7.572;2023-02-23T10:41:36;100093.38;;;13.24;66.15
45888;BME280;31595;51.418;7.572;2023-02-23T10:44:29;100092.91;;;13.22;66.29
45888;BME280;31595;51.418;7.572;2023-02-23T10:47:14;100102.25;;;13.26;66.27
45888;BME280;31595;51.418;7.572;2023-02-23T10:49:44;100095.03;;;13.25;66.13
45888;BME280;31595;51.418;7.572;2023-02-23T10:52:28;100097.38;;;13.44;66.46
45888;BME280;31595;51.418;7.572;2023-02-23T10:54:57;100103.47;;;13.58;65.84
45888;BME280;31595;51.418;7.572;2023-02-23T10:57:26;100095.75;;;13.76;65.75
45888;BME280;31595;51.418;7.572;2023-02-23T11:00:22;100094.25;;;13.91;64.40
45888;BME280;31595;51.418;7.572;2023-02-23T11:05:46;100097.47;;;14.27;63.85
45888;BME280;31595;51.418;7.572;2023-02-23T11:08:33;100092.81;;;14.31;62.71
45888;BME280;31595;51.418;7.572;2023-02-23T11:11:10;100090.22;;;14.26;63.65
45888;BME280;31595;51.418;7.572;2023-02-23T11:13:51;100099.34;;;14.23;63.19
45888;BME280;31595;51.418;7.572;2023-02-23T11:16:29;100099.69;;;14.21;62.40
45888;BME280;31595;51.418;7.572;2023-02-23T11:19:12;100092.78;;;14.18;62.87
45888;BME280;31595;51.418;7.572;2023-02-23T11:21:49;100087.63;;;14.08;62.89
45888;BME280;31595;51.418;7.572;2023-02-23T11:24:24;100103.94;;;13.94;62.04
45888;BME280;31595;51.418;7.572;2023-02-23T11:27:18;100101.94;;;13.82;62.72
45888;BME280;31595;51.418;7.572;2023-02-23T11:29:50;100099.25;;;13.73;62.66
45888;BME280;31595;51.418;7.572;2023-02-23T11:32:30;100092.09;;;13.64;62.77
45888;BME280;31595;51.418;7.572;2023-02-23T11:35:28;100101.03;;;13.57;63.32
45888;BME280;31595;51.418;7.572;2023-02-23T11:37:57;100096.34;;;13.49;63.88
45888;BME280;31595;51.418;7.572;2023-02-23T11:40:32;100094.03;;;13.51;63.24
45888;BME280;31595;51.418;7.572;2023-02-23T11:43:22;100090.03;;;13.52;63.98
45888;BME280;31595;51.418;7.572;2023-02-23T11:45:56;100086.19;;;13.44;62.92
45888;BME280;31595;51.418;7.572;2023-02-23T11:48:31;100088.03;;;13.40;62.92
45888;BME280;31595;51.418;7.572;2023-02-23T11:51:03;100083.16;;;13.28;63.14
45888;BME280;31595;51.418;7.572;2023-02-23T11:53:43;100086.84;;;13.20;63.69
45888;BME280;31595;51.418;7.572;2023-02-23T11:56:19;100079.47;;;13.15;64.20
45888;BME280;31595;51.418;7.572;2023-02-23T11:59:02;100090.53;;;13.12;64.56
45888;BME280;31595;51.418;7.572;2023-02-23T12:01:41;100100.28;;;13.06;63.72
45888;BME280;31595;51.418;7.572;2023-02-23T12:04:45;100098.56;;;12.92;64.48
45888;BME280;31595;51.418;7.572;2023-02-23T12:10:31;100106.88;;;12.80;64.97
45888;BME280;31595;51.418;7.572;2023-02-23T12:13:12;100096.38;;;12.77;65.58
45888;BME280;31595;51.418;7.572;2023-02-23T12:15:51;100098.06;;;12.69;65.04
45888;BME280;31595;51.418;7.572;2023-02-23T12:18:43;100098.38;;;12.68;64.76
45888;BME280;31595;51.418;7.572;2023-02-23T12:21:25;100097.44;;;12.64;65.51
45888;BME280;31595;51.418;7.572;2023-02-23T12:24:24;100093.38;;;12.52;65.48
45888;BME280;31595;51.418;7.572;2023-02-23T12:27:10;100090.28;;;12.54;65.10
45888;BME280;31595;51.418;7.572;2023-02-23T12:32:45;100091.13;;;12.46;65.54
45888;BME280;31595;51.418;7.572;2023-02-23T12:35:20;100090.50;;;12.40;64.90
45888;BME280;31595;51.418;7.572;2023-02-23T12:38:02;100091.66;;;12.39;65.44
45888;BME280;31595;51.418;7.572;2023-02-23T12:43:51;100102.84;;;12.39;65.70
45888;BME280;31595;51.418;7.572;2023-02-23T12:46:47;100102.69;;;12.35;65.60
45888;BME280;31595;51.418;7.572;2023-02-23T12:49:21;100103.69;;;12.31;65.53
45888;BME280;31595;51.418;7.572;2023-02-23T12:51:58;100102.06;;;12.21;65.56
45888;BME280;31595;51.418;7.572;2023-02-23T12:54:35;100098.97;;;12.23;65.49
45888;BME280;31595;51.418;7.572;2023-02-23T12:57:23;100100.94;;;12.22;65.07
45888;BME280;31595;51.418;7.572;2023-02-23T13:06:32;100105.44;;;12.06;65.59
45888;BME280;31595;51.418;7.572;2023-02-23T13:09:17;100099.84;;;12.06;65.24
45888;BME280;31595;51.418;7.572;2023-02-23T13:12:27;100100.81;;;12.10;64.82
45888;BME280;31595;51.418;7.572;2023-02-23T13:15:10;100115.75;;;12.14;65.05
45888;BME280;31595;51.418;7.572;2023-02-23T13:17:42;100111.13;;;12.18;65.52
45888;BME280;31595;51.418;7.572;2023-02-23T13:20:21;100107.00;;;12.24;65.44
45888;BME280;31595;51.418;7.572;2023-02-23T13:22:55;100108.91;;;12.32;64.90
45888;BME280;31595;51.418;7.572;2023-02-23T13:25:41;100104.66;;;12.35;65.00
45888;BME280;31595;51.418;7.572;2023-02-23T13:28:32;100103.22;;;12.29;65.17
45888;BME280;31595;51.418;7.572;2023-02-23T13:31:21;100112.72;;;12.28;65.40
45888;BME280;31595;51.418;7.572;2023-02-23T13:33:57;100119.00;;;12.25;65.18
45888;BME280;31595;51.418;7.572;2023-02-23T13:36:29;100108.47;;;12.22;65.14
45888;BME280;31595;51.418;7.572;2023-02-23T13:39:27;100112.44;;;12.21;65.31
45888;BME280;31595;51.418;7.572;2023-02-23T13:42:14;100109.97;;;12.19;65.05
45888;BME280;31595;51.418;7.572;2023-02-23T13:45:22;100117.03;;;12.16;65.45
45888;BME280;31595;51.418;7.572;2023-02-23T13:47:56;100118.06;;;12.12;64.75
45888;BME280;31595;51.418;7.572;2023-02-23T13:50:38;100127.88;;;12.09;64.49
45888;BME280;31595;51.418;7.572;2023-02-23T13:56:46;100126.59;;;12.07;64.32
45888;BME280;31595;51.418;7.572;2023-02-23T13:59:17;100133.00;;;12.07;64.28
45888;BME280;31595;51.418;7.572;2023-02-23T14:01:52;100135.47;;;12.09;64.32
45888;BME280;31595;51.418;7.572;2023-02-23T14:04:33;100130.53;;;12.14;64.40
45888;BME280;31595;51.418;7.572;2023-02-23T14:07:04;100132.00;;;12.12;64.25
45888;BME280;31595;51.418;7.572;2023-02-23T14:09:48;100134.59;;;12.17;63.62
45888;BME280;31595;51.418;7.572;2023-02-23T14:12:23;100132.81;;;12.12;63.29
45888;BME280;31595;51.418;7.572;2023-02-23T14:17:58;100129.06;;;12.08;63.59
45888;BME280;31595;51.418;7.572;2023-02-23T14:20:48;100136.75;;;12.11;63.69
45888;BME280;31595;51.418;7.572;2023-02-23T14:30:20;100136.78;;;12.03;64.06
45888;BME280;31595;51.418;7.572;2023-02-23T14:36:35;100140.09;;;11.96;63.86
45888;BME280;31595;51.418;7.572;2023-02-23T14:39:07;100139.13;;;11.92;63.84
45888;BME280;31595;51.418;7.572;2023-02-23T14:41:42;100140.91;;;11.88;64.21
45888;BME280;31595;51.418;7.572;2023-02-23T14:44:31;100137.50;;;11.91;64.04
45888;BME280;31595;51.418;7.572;2023-02-23T14:51:07;100132.03;;;11.86;64.03
45888;BME280;31595;51.418;7.572;2023-02-23T14:56:17;100132.72;;;11.74;64.71
45888;BME280;31595;51.418;7.572;2023-02-23T14:58:50;100133.88;;;11.73;65.13
45888;BME280;31595;51.418;7.572;2023-02-23T15:01:58;100137.81;;;11.63;65.57
45888;BME280;31595;51.418;7.572;2023-02-23T15:04:38;100143.38;;;11.63;65.85
45888;BME280;31595;51.418;7.572;2023-02-23T15:07:19;100147.34;;;11.62;65.72
45888;BME280;31595;51.418;7.572;2023-02-23T15:09:55;100150.94;;;11.54;66.06
45888;BME280;31595;51.418;7.572;2023-02-23T15:12:26;100148.97;;;11.46;66.51
45888;BME280;31595;51.418;7.572;2023-02-23T15:15:16;100149.47;;;11.39;67.39
45888;BME280;31595;51.418;7.572;2023-02-23T15:17:47;100139.81;;;11.36;68.38
45888;BME280;31595;51.418;7.572;2023-02-23T15:20:22;100145.88;;;11.38;67.73